createdAt,value
2022-08-16T00:00:04.159Z,18.55
2022-08-16T00:02:12.969Z,19.05
2022-08-16T00:04:18.031Z,25.17
2022-08-16T00:06:23.049Z,19.90
2022-08-16T00:08:36.868Z,19.60
2022-08-16T00:10:42.619Z,17.33
2022-08-16T00:12:48.049Z,20.63
2022-08-16T00:14:56.411Z,18.48
2022-08-16T00:17:16.122Z,17.88
2022-08-16T00:19:28.358Z,20.73
2022-08-16T00:21:46.597Z,17.80
2022-08-16T00:23:59.683Z,16.42
2022-08-16T00:26:36.200Z,17.05
2022-08-16T00:28:34.479Z,17.35
2022-08-16T00:30:39.495Z,15.32
2022-08-16T00:32:47.937Z,17.48
2022-08-16T00:34:54.404Z,18.40
2022-08-16T00:36:59.535Z,18.80
2022-08-16T00:39:08.005Z,13.48
2022-08-16T00:41:20.232Z,16.75
2022-08-16T00:43:42.426Z,18.58
2022-08-16T00:46:00.142Z,15.07
2022-08-16T00:48:30.308Z,21.20
2022-08-16T00:50:39.259Z,14.70
2022-08-16T00:52:50.365Z,16.23
2022-08-16T00:54:55.785Z,14.98
2022-08-16T00:57:02.445Z,18.98
2022-08-16T00:59:11.227Z,21.67
2022-08-16T01:01:20.015Z,14.52
2022-08-16T01:03:30.011Z,15.55
2022-08-16T01:05:35.402Z,18.13
2022-08-16T01:07:51.873Z,18.52
2022-08-16T01:09:57.731Z,15.18
2022-08-16T01:12:08.761Z,15.30
2022-08-16T01:14:25.107Z,16.23
2022-08-16T01:16:35.930Z,20.80
2022-08-16T01:18:46.127Z,19.40
2022-08-16T01:20:59.577Z,15.18
2022-08-16T01:23:12.046Z,16.85
2022-08-16T01:25:22.066Z,16.42
2022-08-16T01:27:31.421Z,18.20
2022-08-16T01:29:58.181Z,20.60
2022-08-16T01:32:04.249Z,17.25
2022-08-16T01:36:31.899Z,16.42
2022-08-16T01:38:39.183Z,17.83
2022-08-16T01:40:45.850Z,18.65
2022-08-16T01:42:54.043Z,21.80
2022-08-16T01:45:00.104Z,20.85
2022-08-16T01:47:05.370Z,20.02
2022-08-16T01:49:14.108Z,15.27
2022-08-16T01:51:22.722Z,15.82
2022-08-16T01:53:30.026Z,18.00
2022-08-16T01:55:40.889Z,16.20
2022-08-16T01:57:53.214Z,18.08
2022-08-16T02:00:01.285Z,14.25
2022-08-16T02:02:08.942Z,15.10
2022-08-16T02:04:48.999Z,17.92
2022-08-16T02:06:59.994Z,16.77
2022-08-16T02:09:06.150Z,20.88
2022-08-16T02:11:11.177Z,17.05
2022-08-16T02:13:16.997Z,16.25
2022-08-16T02:15:25.057Z,18.65
2022-08-16T02:17:30.656Z,15.85
2022-08-16T02:19:59.211Z,15.27
2022-08-16T02:22:08.345Z,16.27
2022-08-16T02:24:32.636Z,17.35
2022-08-16T02:26:45.130Z,17.50
2022-08-16T02:28:50.958Z,20.13
2022-08-16T02:30:59.590Z,14.40
2022-08-16T02:33:06.754Z,18.92
2022-08-16T02:35:13.588Z,21.27
2022-08-16T02:39:27.021Z,16.35
2022-08-16T02:41:37.377Z,17.25
2022-08-16T02:43:43.923Z,14.55
2022-08-16T02:45:49.830Z,17.00
2022-08-16T02:48:00.107Z,15.55
2022-08-16T02:50:54.532Z,15.65
2022-08-16T02:52:44.805Z,20.98
2022-08-16T02:54:55.493Z,18.27
2022-08-16T02:57:01.926Z,16.85
2022-08-16T02:59:11.697Z,16.10
2022-08-16T03:01:24.571Z,14.90
2022-08-16T03:04:41.144Z,23.95
2022-08-16T03:06:04.291Z,16.48
2022-08-16T03:08:49.945Z,17.17
2022-08-16T03:10:59.627Z,15.88
2022-08-16T03:13:12.409Z,17.48
2022-08-16T03:15:20.163Z,19.17
2022-08-16T03:17:32.285Z,17.40
2022-08-16T03:19:47.655Z,25.02
2022-08-16T03:22:01.749Z,17.40
2022-08-16T03:24:28.148Z,17.35
2022-08-16T03:26:33.440Z,17.48
2022-08-16T03:28:38.039Z,21.42
2022-08-16T03:30:43.558Z,20.65
2022-08-16T03:32:52.193Z,20.48
2022-08-16T03:34:59.097Z,16.38
2022-08-16T03:37:03.874Z,19.80
2022-08-16T03:39:15.124Z,15.63
2022-08-16T03:41:29.450Z,13.82
2022-08-16T03:43:52.417Z,18.90
2022-08-16T03:46:00.714Z,18.83
2022-08-16T03:48:15.024Z,16.98
2022-08-16T03:50:25.626Z,19.45
2022-08-16T03:52:32.710Z,16.15
2022-08-16T03:54:57.578Z,17.60
2022-08-16T03:57:04.932Z,15.70
2022-08-16T03:59:12.288Z,15.63
2022-08-16T04:01:29.391Z,13.35
2022-08-16T04:03:36.778Z,12.27
2022-08-16T04:05:48.613Z,14.38
2022-08-16T04:07:55.690Z,17.45
2022-08-16T04:10:35.873Z,16.05
2022-08-16T04:12:53.220Z,12.85
2022-08-16T04:14:50.716Z,15.45
2022-08-16T04:17:01.758Z,17.20
2022-08-16T04:19:14.718Z,16.23
2022-08-16T04:21:29.297Z,14.20
2022-08-16T04:23:34.474Z,17.10
2022-08-16T04:25:42.164Z,17.58
2022-08-16T04:27:54.216Z,16.15
2022-08-16T04:30:03.101Z,16.25
2022-08-16T04:32:12.382Z,14.23
2022-08-16T04:34:22.053Z,14.95
2022-08-16T04:36:30.388Z,15.43
2022-08-16T04:38:37.994Z,14.63
2022-08-16T04:40:42.971Z,17.00
2022-08-16T04:42:54.847Z,16.00
2022-08-16T04:45:02.704Z,15.98
2022-08-16T04:47:21.546Z,14.80
2022-08-16T04:49:38.710Z,15.48
2022-08-16T04:51:53.916Z,17.10
2022-08-16T04:54:00.319Z,14.15
2022-08-16T04:56:05.898Z,9.05
2022-08-16T04:58:38.453Z,14.68
2022-08-16T05:00:41.508Z,12.85
2022-08-16T05:02:55.670Z,16.30
2022-08-16T05:05:05.197Z,14.27
2022-08-16T05:07:14.971Z,11.05
2022-08-16T05:09:45.050Z,12.32
2022-08-16T05:11:57.375Z,11.02
2022-08-16T05:16:21.568Z,8.45
2022-08-16T05:18:31.810Z,13.30
2022-08-16T05:20:45.459Z,10.30
2022-08-16T05:23:03.366Z,13.05
2022-08-16T05:25:14.141Z,13.93
2022-08-16T05:27:24.216Z,12.40
2022-08-16T05:29:57.162Z,16.23
2022-08-16T05:31:56.550Z,11.13
2022-08-16T05:34:03.600Z,16.33
2022-08-16T05:36:14.460Z,14.98
2022-08-16T05:38:32.640Z,16.23
2022-08-16T05:43:07.354Z,15.73
2022-08-16T05:45:22.291Z,12.95
2022-08-16T05:47:30.709Z,14.13
2022-08-16T05:49:38.619Z,13.90
2022-08-16T05:51:46.864Z,15.75
2022-08-16T05:53:54.785Z,18.95
2022-08-16T05:55:59.512Z,17.25
2022-08-16T05:58:03.892Z,13.43
2022-08-16T06:00:13.954Z,16.95
2022-08-16T06:02:33.520Z,19.25
2022-08-16T06:04:42.404Z,17.55
2022-08-16T06:06:56.075Z,15.65
2022-08-16T06:09:03.082Z,13.32
2022-08-16T06:11:13.268Z,14.88
2022-08-16T06:13:20.209Z,19.20
2022-08-16T06:15:25.185Z,16.63
2022-08-16T06:17:41.535Z,14.23
2022-08-16T06:19:52.255Z,12.88
2022-08-16T06:21:58.329Z,14.65
2022-08-16T06:24:53.456Z,13.75
2022-08-16T06:26:34.656Z,13.43
2022-08-16T06:28:43.134Z,13.07
2022-08-16T06:30:57.981Z,18.38
2022-08-16T06:33:03.935Z,12.23
2022-08-16T06:35:10.367Z,14.68
2022-08-16T06:37:18.298Z,15.55
2022-08-16T06:39:23.443Z,15.63
2022-08-16T06:41:39.769Z,17.95
2022-08-16T06:43:55.112Z,14.57
2022-08-16T06:46:03.781Z,15.82
2022-08-16T06:48:09.372Z,13.95
2022-08-16T06:50:22.031Z,15.05
2022-08-16T06:53:08.658Z,15.05
2022-08-16T06:55:00.872Z,15.75
2022-08-16T06:57:06.807Z,19.20
2022-08-16T06:59:25.914Z,15.32
2022-08-16T07:01:44.932Z,18.85
2022-08-16T07:03:57.138Z,12.60
2022-08-16T07:06:08.051Z,12.18
2022-08-16T07:08:23.754Z,12.40
2022-08-16T07:10:32.604Z,11.23
2022-08-16T07:12:47.504Z,13.95
2022-08-16T07:15:04.623Z,13.77
2022-08-16T07:17:13.131Z,12.38
2022-08-16T07:20:03.812Z,17.77
2022-08-16T07:22:03.734Z,10.90
2022-08-16T07:24:11.178Z,16.75
2022-08-16T07:26:41.305Z,13.05
2022-08-16T07:28:56.893Z,15.60
2022-08-16T07:31:03.779Z,9.85
2022-08-16T07:33:15.906Z,11.80
2022-08-16T07:37:27.498Z,17.67
2022-08-16T07:39:54.649Z,14.52
2022-08-16T07:42:00.701Z,11.30
2022-08-16T07:44:16.323Z,15.75
2022-08-16T07:46:38.443Z,11.45
2022-08-16T07:49:02.429Z,13.35
2022-08-16T07:51:13.286Z,17.08
2022-08-16T07:53:19.857Z,14.00
2022-08-16T07:55:26.727Z,15.07
2022-08-16T07:57:36.281Z,10.38
2022-08-16T07:59:48.971Z,12.60
2022-08-16T08:01:57.461Z,19.42
2022-08-16T08:04:04.772Z,13.88
2022-08-16T08:06:14.013Z,11.57
2022-08-16T08:08:49.472Z,10.63
2022-08-16T08:10:48.708Z,13.88
2022-08-16T08:12:59.445Z,11.43
2022-08-16T08:15:09.604Z,13.07
2022-08-16T08:17:17.134Z,13.65
2022-08-16T08:19:26.506Z,10.48
2022-08-16T08:22:01.021Z,10.57
2022-08-16T08:23:58.917Z,12.00
2022-08-16T08:26:10.717Z,10.68
2022-08-16T08:28:22.802Z,12.70
2022-08-16T08:30:49.753Z,11.33
2022-08-16T08:33:00.306Z,10.65
2022-08-16T08:35:20.621Z,11.45
2022-08-16T08:37:55.841Z,11.25
2022-08-16T08:40:05.941Z,8.85
2022-08-16T08:42:16.078Z,9.60
2022-08-16T08:44:32.126Z,10.98
2022-08-16T08:46:42.763Z,8.93
2022-08-16T08:49:08.762Z,12.32
2022-08-16T08:51:19.619Z,13.35
2022-08-16T08:53:34.160Z,13.45
2022-08-16T08:55:39.432Z,11.55
2022-08-16T08:57:48.101Z,11.45
2022-08-16T09:00:26.856Z,12.40
2022-08-16T09:02:36.826Z,11.73
2022-08-16T09:04:42.992Z,12.80
2022-08-16T09:06:54.756Z,11.43
2022-08-16T09:09:04.140Z,21.83
2022-08-16T09:11:20.458Z,12.38
2022-08-16T09:13:28.553Z,14.13
2022-08-16T09:15:39.047Z,12.15
2022-08-16T09:17:48.946Z,9.93
2022-08-16T09:19:59.434Z,11.50
2022-08-16T09:22:20.977Z,10.35
2022-08-16T09:24:47.092Z,13.48
2022-08-16T09:26:52.434Z,13.43
2022-08-16T09:29:16.725Z,11.75
2022-08-16T09:31:26.481Z,9.90
2022-08-16T09:33:37.206Z,14.52
2022-08-16T09:40:32.721Z,8.70
2022-08-16T09:42:56.631Z,11.05
2022-08-16T09:45:11.272Z,12.52
2022-08-16T09:47:23.572Z,10.27
2022-08-16T09:49:36.741Z,11.27
2022-08-16T09:51:42.176Z,16.77
2022-08-16T09:53:53.932Z,10.02
2022-08-16T09:56:02.279Z,11.00
2022-08-16T09:58:07.470Z,13.38
2022-08-16T10:00:42.741Z,10.13
2022-08-16T10:02:43.208Z,8.82
2022-08-16T10:04:53.236Z,13.02
2022-08-16T10:09:10.612Z,11.43
2022-08-16T10:11:50.440Z,10.48
2022-08-16T10:16:04.600Z,10.20
2022-08-16T10:18:56.889Z,13.07
2022-08-16T10:20:48.594Z,11.95
2022-08-16T10:23:07.287Z,12.30
2022-08-16T10:27:17.315Z,9.98
2022-08-16T10:32:03.591Z,10.25
2022-08-16T10:37:32.519Z,11.77
2022-08-16T10:39:58.006Z,11.95
2022-08-16T10:42:55.202Z,9.50
2022-08-16T10:45:11.165Z,12.30
2022-08-16T10:47:22.292Z,19.00
2022-08-16T10:49:42.366Z,8.98
2022-08-16T10:52:02.601Z,9.95
2022-08-16T10:58:34.956Z,11.63
2022-08-16T11:05:04.908Z,16.25
2022-08-16T11:07:43.486Z,10.68
2022-08-16T11:11:04.761Z,14.20
2022-08-16T11:40:44.510Z,8.38
2022-08-16T11:43:45.312Z,10.27
2022-08-16T11:45:54.668Z,11.57
2022-08-16T11:48:12.640Z,10.57
2022-08-16T11:50:36.485Z,10.77
2022-08-16T11:53:08.125Z,11.90
2022-08-16T11:55:43.991Z,8.10
2022-08-16T12:02:31.385Z,13.30
2022-08-16T12:27:41.274Z,10.70
2022-08-16T12:46:31.351Z,9.93
2022-08-16T12:49:11.099Z,11.00
2022-08-16T12:52:11.399Z,11.45
2022-08-16T12:55:33.585Z,14.10
2022-08-16T12:57:58.081Z,12.35
2022-08-16T13:00:05.072Z,11.38
2022-08-16T13:02:12.406Z,8.68
2022-08-16T13:04:33.173Z,10.45
2022-08-16T13:06:40.162Z,8.95
2022-08-16T13:08:46.650Z,9.93
2022-08-16T13:10:53.472Z,8.48
2022-08-16T13:12:58.411Z,10.85
2022-08-16T13:15:03.320Z,8.25
2022-08-16T13:17:18.456Z,8.98
2022-08-16T13:19:25.531Z,14.43
2022-08-16T13:21:39.888Z,12.20
2022-08-16T13:23:46.357Z,8.75
2022-08-16T13:25:51.646Z,13.23
2022-08-16T13:28:03.275Z,11.03
2022-08-16T13:30:21.760Z,8.65
2022-08-16T13:32:39.839Z,10.95
2022-08-16T13:34:44.818Z,9.70
2022-08-16T13:36:54.770Z,21.60
2022-08-16T13:39:03.557Z,11.48
2022-08-16T13:41:12.583Z,11.40
2022-08-16T13:43:18.215Z,24.73
2022-08-16T13:45:23.255Z,11.57
2022-08-16T13:47:30.966Z,11.15
2022-08-16T13:49:37.602Z,11.60
2022-08-16T13:51:44.180Z,10.68
2022-08-16T13:53:59.818Z,12.10
2022-08-16T13:56:10.958Z,12.07
2022-08-16T13:58:36.533Z,13.60
2022-08-16T14:00:42.743Z,10.68
2022-08-16T14:02:48.952Z,14.10
2022-08-16T14:04:59.584Z,12.68
2022-08-16T14:07:19.894Z,10.68
2022-08-16T14:09:32.752Z,16.63
2022-08-16T14:11:38.192Z,13.35
2022-08-16T14:13:44.584Z,14.10
2022-08-16T14:15:49.783Z,13.65
2022-08-16T14:18:23.254Z,11.52
2022-08-16T14:20:20.975Z,13.38
2022-08-16T14:22:30.687Z,16.15
2022-08-16T14:24:38.834Z,10.20
2022-08-16T14:26:45.660Z,10.25
2022-08-16T14:28:51.178Z,12.43
2022-08-16T14:30:55.767Z,10.18
2022-08-16T14:33:00.760Z,13.38
2022-08-16T14:35:10.681Z,16.02
2022-08-16T14:37:17.012Z,11.20
2022-08-16T14:39:23.454Z,21.58
2022-08-16T14:41:28.971Z,27.50
2022-08-16T14:43:33.517Z,18.55
2022-08-16T14:45:41.944Z,20.98
2022-08-16T14:47:49.680Z,13.32
2022-08-16T14:49:55.256Z,16.10
2022-08-16T14:52:03.192Z,14.68
2022-08-16T14:54:11.342Z,15.82
2022-08-16T14:56:38.220Z,15.98
2022-08-16T14:58:41.105Z,14.80
2022-08-16T15:00:46.156Z,16.58
2022-08-16T15:02:54.284Z,14.63
2022-08-16T15:04:59.356Z,19.77
2022-08-16T15:07:06.199Z,18.50
2022-08-16T15:09:17.967Z,22.77
2022-08-16T15:11:24.330Z,14.73
2022-08-16T15:13:29.000Z,17.35
2022-08-16T15:15:34.059Z,14.55
2022-08-16T15:17:40.062Z,17.92
2022-08-16T15:19:47.913Z,19.35
2022-08-16T15:21:54.010Z,15.52
2022-08-16T15:24:00.416Z,17.67
2022-08-16T15:26:08.374Z,13.75
2022-08-16T15:28:30.626Z,17.48
2022-08-16T15:30:57.498Z,12.18
2022-08-16T15:33:07.097Z,10.75
2022-08-16T15:35:13.577Z,13.95
2022-08-16T15:37:20.286Z,16.60
2022-08-16T15:39:35.615Z,16.48
2022-08-16T15:42:02.986Z,15.65
2022-08-16T15:44:10.477Z,14.18
2022-08-16T15:46:34.538Z,11.73
2022-08-16T15:48:48.929Z,12.02
2022-08-16T15:51:00.433Z,11.23
2022-08-16T15:53:12.605Z,13.32
2022-08-16T15:55:34.655Z,11.27
2022-08-16T15:57:41.916Z,12.07
2022-08-16T15:59:52.985Z,21.95
2022-08-16T16:02:01.599Z,12.18
2022-08-16T16:04:06.357Z,13.10
2022-08-16T16:06:12.620Z,15.68
2022-08-16T16:08:23.931Z,15.10
2022-08-16T16:10:32.451Z,10.80
2022-08-16T16:12:50.308Z,10.48
2022-08-16T16:15:00.794Z,10.15
2022-08-16T16:17:07.003Z,11.43
2022-08-16T16:19:12.957Z,11.30
2022-08-16T16:21:24.249Z,11.40
2022-08-16T16:23:33.927Z,10.27
2022-08-16T16:25:44.003Z,11.00
2022-08-16T16:27:55.881Z,12.05
2022-08-16T16:30:11.331Z,10.75
2022-08-16T16:32:36.145Z,14.60
2022-08-16T16:34:43.383Z,12.90
2022-08-16T16:36:48.756Z,14.32
2022-08-16T16:38:58.733Z,17.23
2022-08-16T16:41:09.881Z,15.30
2022-08-16T16:43:16.171Z,19.40
2022-08-16T16:45:23.432Z,18.17
2022-08-16T16:47:45.807Z,17.02
2022-08-16T16:55:05.731Z,19.27
2022-08-16T16:59:50.321Z,12.27
2022-08-16T17:02:41.436Z,12.45
2022-08-16T17:04:31.768Z,21.30
2022-08-16T17:06:39.129Z,19.90
2022-08-16T17:08:47.686Z,26.08
2022-08-16T17:11:13.211Z,38.08
2022-08-16T17:13:29.290Z,42.15
2022-08-16T17:15:56.670Z,37.60
2022-08-16T17:28:58.223Z,18.85
2022-08-16T17:31:03.473Z,25.50
2022-08-16T17:33:14.081Z,13.60
2022-08-16T17:35:40.457Z,19.33
2022-08-16T17:40:46.711Z,26.15
2022-08-16T17:42:55.919Z,25.08
2022-08-16T17:45:02.075Z,29.10
2022-08-16T17:47:09.768Z,46.15
2022-08-16T17:49:15.617Z,55.50
2022-08-16T17:51:23.006Z,55.38
2022-08-16T17:53:30.436Z,26.30
2022-08-16T17:55:40.292Z,36.72
2022-08-16T17:57:47.629Z,51.45
2022-08-16T17:59:52.893Z,55.47
2022-08-16T18:01:59.167Z,72.72
2022-08-16T18:04:08.300Z,59.70
2022-08-16T18:06:17.162Z,44.42
2022-08-16T18:08:26.059Z,25.42
2022-08-16T18:10:36.813Z,18.88
2022-08-16T18:12:54.902Z,19.70
2022-08-16T18:15:01.232Z,12.77
2022-08-16T18:17:09.103Z,16.95
2022-08-16T18:19:16.955Z,13.93
2022-08-16T18:21:41.880Z,14.35
2022-08-16T18:23:49.076Z,21.48
2022-08-16T18:26:02.089Z,18.02
2022-08-16T18:28:07.891Z,20.42
2022-08-16T18:30:18.158Z,21.23
2022-08-16T18:32:25.559Z,22.00
2022-08-16T18:34:31.057Z,33.88
2022-08-16T18:36:37.417Z,19.05
2022-08-16T18:38:43.412Z,17.10
2022-08-16T18:40:51.189Z,19.90
2022-08-16T18:42:58.793Z,18.80
2022-08-16T18:45:04.740Z,29.52
2022-08-16T18:47:10.421Z,22.17
2022-08-16T18:49:18.158Z,21.65
2022-08-16T18:51:25.369Z,27.02
2022-08-16T18:53:31.753Z,22.13
2022-08-16T18:55:45.481Z,18.65
2022-08-16T18:58:00.308Z,20.20
2022-08-16T19:00:10.572Z,19.05
2022-08-16T19:02:56.115Z,19.67
2022-08-16T19:04:58.517Z,17.65
2022-08-16T19:07:04.298Z,16.30
2022-08-16T19:09:12.475Z,23.23
2022-08-16T19:11:23.851Z,21.45
2022-08-16T19:13:34.540Z,24.40
2022-08-16T19:15:41.288Z,18.67
2022-08-16T19:17:47.673Z,20.27
2022-08-16T19:19:52.787Z,19.77
2022-08-16T19:21:59.577Z,19.35
2022-08-16T19:24:17.849Z,19.33
2022-08-16T19:26:25.983Z,15.93
2022-08-16T19:28:49.812Z,15.45
2022-08-16T19:30:58.242Z,16.90
2022-08-16T19:33:06.465Z,14.65
2022-08-16T19:35:17.659Z,13.88
2022-08-16T19:37:24.356Z,16.02
2022-08-16T19:39:32.652Z,25.77
2022-08-16T19:41:41.051Z,18.15
2022-08-16T19:43:52.782Z,11.70
2022-08-16T19:46:01.474Z,16.02
2022-08-16T19:48:15.810Z,19.55
2022-08-16T19:50:35.868Z,18.38
2022-08-16T19:52:42.483Z,18.23
2022-08-16T19:57:14.646Z,18.15
2022-08-16T19:59:39.994Z,14.35
2022-08-16T20:01:49.721Z,18.25
2022-08-16T20:03:56.096Z,16.05
2022-08-16T20:06:01.335Z,15.25
2022-08-16T20:10:30.592Z,16.92
2022-08-16T20:13:02.189Z,20.73
2022-08-16T20:15:19.766Z,18.77
2022-08-16T20:17:28.958Z,22.38
2022-08-16T20:19:47.314Z,17.33
2022-08-16T20:21:54.786Z,15.75
2022-08-16T20:24:22.755Z,17.45
2022-08-16T20:26:30.112Z,17.10
2022-08-16T20:28:52.893Z,18.70
2022-08-16T20:31:15.406Z,15.90
2022-08-16T20:33:24.542Z,12.95
2022-08-16T20:35:31.680Z,17.25
2022-08-16T20:37:43.112Z,13.70
2022-08-16T20:39:50.693Z,15.57
2022-08-16T20:42:19.863Z,20.83
2022-08-16T20:44:25.821Z,14.90
2022-08-16T20:46:34.062Z,16.35
2022-08-16T20:48:59.463Z,15.02
2022-08-16T20:51:07.244Z,15.07
2022-08-16T20:53:12.875Z,15.32
2022-08-16T20:55:17.943Z,13.10
2022-08-16T20:57:24.361Z,17.83
2022-08-16T20:59:31.989Z,15.60
2022-08-16T21:01:46.662Z,13.05
2022-08-16T21:03:55.005Z,15.38
2022-08-16T21:05:59.914Z,12.85
2022-08-16T21:08:27.912Z,19.15
2022-08-16T21:10:30.595Z,14.48
2022-08-16T21:12:37.662Z,14.18
2022-08-16T21:14:43.303Z,15.00
2022-08-16T21:16:49.997Z,13.68
2022-08-16T21:18:54.494Z,15.40
2022-08-16T21:21:01.987Z,16.45
2022-08-16T21:23:12.355Z,14.75
2022-08-16T21:25:23.366Z,19.65
2022-08-16T21:27:27.765Z,15.77
2022-08-16T21:29:39.659Z,16.73
2022-08-16T21:31:48.951Z,19.50
2022-08-16T21:33:55.090Z,18.50
2022-08-16T21:35:59.950Z,18.40
2022-08-16T21:38:30.289Z,20.70
2022-08-16T21:40:31.989Z,22.00
2022-08-16T21:42:37.315Z,18.73
2022-08-16T21:44:41.758Z,17.20
2022-08-16T21:46:46.150Z,19.25
2022-08-16T21:48:51.786Z,19.55
2022-08-16T21:50:56.120Z,17.33
2022-08-16T21:53:09.046Z,20.63
2022-08-16T21:55:13.489Z,17.17
2022-08-16T21:57:22.056Z,19.88
2022-08-16T21:59:26.369Z,21.85
2022-08-16T22:01:30.592Z,18.20
2022-08-16T22:03:35.513Z,17.95
2022-08-16T22:05:43.816Z,19.17
2022-08-16T22:07:48.258Z,18.60
2022-08-16T22:09:52.511Z,16.58
2022-08-16T22:12:00.607Z,21.85
2022-08-16T22:14:05.591Z,21.75
2022-08-16T22:16:09.996Z,21.38
2022-08-16T22:18:16.054Z,15.30
2022-08-16T22:20:21.187Z,20.45
2022-08-16T22:22:36.000Z,20.17
2022-08-16T22:24:40.482Z,17.65
2022-08-16T22:26:47.303Z,25.40
2022-08-16T22:28:51.651Z,19.60
2022-08-16T22:30:56.086Z,18.05
2022-08-16T22:33:00.457Z,19.60
2022-08-16T22:35:10.772Z,15.57
2022-08-16T22:37:16.810Z,15.75
2022-08-16T22:39:22.691Z,16.17
2022-08-16T22:41:27.843Z,27.50
2022-08-16T22:43:32.780Z,19.42
2022-08-16T22:45:37.956Z,18.40
2022-08-16T22:47:42.621Z,17.90
2022-08-16T22:49:46.889Z,23.00
2022-08-16T22:51:52.396Z,17.10
2022-08-16T22:53:57.965Z,21.25
2022-08-16T22:56:03.719Z,22.60
2022-08-16T22:58:07.975Z,18.33
2022-08-16T23:00:15.839Z,17.38
2022-08-16T23:02:20.273Z,19.75
2022-08-16T23:04:25.609Z,21.05
2022-08-16T23:06:30.337Z,23.52
2022-08-16T23:08:39.601Z,18.27
2022-08-16T23:10:47.670Z,16.42
2022-08-16T23:12:57.288Z,19.80
2022-08-16T23:15:04.383Z,18.73
2022-08-16T23:17:11.593Z,20.58
2022-08-16T23:19:18.116Z,25.55
2022-08-16T23:21:22.550Z,16.67
2022-08-16T23:23:31.206Z,20.17
2022-08-16T23:25:39.806Z,21.77
2022-08-16T23:27:43.979Z,20.10
2022-08-16T23:29:49.630Z,18.98
2022-08-16T23:31:58.971Z,21.63
2022-08-16T23:34:03.290Z,22.15
2022-08-16T23:36:08.545Z,21.08
2022-08-16T23:38:38.967Z,19.27
2022-08-16T23:40:38.474Z,20.65
2022-08-16T23:42:56.408Z,22.35
2022-08-16T23:45:02.137Z,21.17
2022-08-16T23:47:08.192Z,23.75
2022-08-16T23:49:59.557Z,21.15
2022-08-16T23:51:36.655Z,20.75
2022-08-16T23:53:43.409Z,19.98
2022-08-16T23:55:50.041Z,22.58
2022-08-16T23:57:54.748Z,20.73
2022-08-16T23:59:59.199Z,20.35
